Alma Lake, Indiana
Current Conditions -  °F | °C
As of 9:53 PM on Monday 20 Oct 2014 (Local Time) from KHUF Reporting Station
Scattered Clouds Scattered Clouds  
Wind Chill: 58°   Ceiling: Unl
Heat Index: 58°   Visibility: 10mi
Dew Point: 45°   Wind: 5mph
Humidity: 62%   Direction: 310°NW
Pressure: 29.96"   Gusts: NA
Location:  39.5158°N, 87.1262°W
Report Text: KHUF 210153Z 31004KT 10SM SCT060 14/07 A2996 RMK AO2 SLP143 T01440072
Loading
Personal Weather Stations






























Interactive Weather Map
Tropical Storm Tracking
New forecast layout! Learn more

10-Day Weather Forecast

Advertisements
Track Severe Weather on mobile